Main page
METAR-TAF:

Airports :

Eleusina, Greece

latitude: 38-04N, longitude: 023-33E, elevation: 44 m

Current weather observation

The report was made 28 minutes ago, at 09:50 UTC
Wind 16 kt from the North with gusts up to 26 kt
Temperature 30°C
Humidity 29%
Pressure 1016 hPa
Visibility 10 km or more
Scattered clouds at a height of 2500 ft

METAR: LGEL 280950Z 36016G26KT 9999 SCT025 30/10 Q1016

Time: 13:18 (10:18 UTC)

Forecast

The report was made 5 hours and 18 minutes ago, at 05:00 UTC
Forecast valid from 28 at 06 UTC to 29 at 06 UTC
Wind 10 kt from the North
Visibility 10 km or more
Few clouds at a height of 2500 ft
Temporary
from 28 at 09 UTC to 28 at 15 UTC
Wind 10 kt from the North with gusts up to 20 kt

TAF: LGEL 280500Z 2806/2906 35010KT 9999 FEW025 TEMPO 2809/2815 36010G20KT

METAR-TAF

Weather observations and forecasts of more than 4000 airports (METAR and TAF reports).

The available stations are represented by yellow and red dots on the map.

Hover mouse over dot to see the name of the station.

Then click to see weather observations and forecasts.

To change the map : click on the green buttons with a black cross to zoom in, on the green button with a dash to zoom out, or on the green arrows for adjacent maps.


METAR-TAF: